THY7AY LTAU-LTFM
Flight info
| Callsign | THY7AY |
|---|---|
| Flight time | 1h 22m |
| Altitude | 32000 |
| Route | KISLA UL605 YAVRU UL615 ERSEN |
| Aircraft | B738/M-SDE2E3FGHIRWXY/LB1 |
Departure
| Time | 2026-05-07 11:02 |
|---|---|
| Airport | Kayseri Erkilet International Airport (LTAU) |
Arrival
| Time | 2026-05-07 12:25 |
|---|---|
| Airport | İstanbul Airport (LTFM) |
| Time | Latitude | Longitude | Altitude | Speed | Heading |
|---|---|---|---|---|---|
| 2026-05-07 10:35 | 38.76682 | 35.48792 | 3466 ft | 0 kts | 166° |
| 2026-05-07 10:52 | 38.76699 | 35.48787 | 3467 ft | 3 kts | 171° |
| 2026-05-07 10:52 | 38.76720 | 35.48784 | 3466 ft | 3 kts | 183° |
| 2026-05-07 10:53 | 38.76740 | 35.48788 | 3465 ft | 3 kts | 204° |
| 2026-05-07 10:53 | 38.76756 | 35.48802 | 3467 ft | 3 kts | 243° |
| 2026-05-07 10:53 | 38.76759 | 35.48811 | 3464 ft | 1 kts | 257° |
| 2026-05-07 10:55 | 38.76759 | 35.48807 | 3464 ft | 1 kts | 257° |
| 2026-05-07 10:55 | 38.76755 | 35.48787 | 3467 ft | 4 kts | 257° |
| 2026-05-07 10:55 | 38.76746 | 35.48740 | 3467 ft | 7 kts | 257° |
| 2026-05-07 10:55 | 38.76739 | 35.48671 | 3467 ft | 9 kts | 284° |
| 2026-05-07 10:56 | 38.76788 | 35.48632 | 3467 ft | 9 kts | 345° |
| 2026-05-07 10:56 | 38.76854 | 35.48613 | 3466 ft | 12 kts | 347° |
| 2026-05-07 10:56 | 38.76950 | 35.48585 | 3465 ft | 15 kts | 346° |
| 2026-05-07 10:56 | 38.77015 | 35.48662 | 3463 ft | 15 kts | 75° |
| 2026-05-07 10:57 | 38.77039 | 35.48788 | 3465 ft | 14 kts | 77° |
| 2026-05-07 10:57 | 38.77062 | 35.48909 | 3466 ft | 14 kts | 76° |
| 2026-05-07 10:57 | 38.77084 | 35.49025 | 3468 ft | 14 kts | 76° |
| 2026-05-07 10:57 | 38.77109 | 35.49150 | 3467 ft | 15 kts | 77° |
| 2026-05-07 10:58 | 38.77133 | 35.49280 | 3469 ft | 16 kts | 76° |
| 2026-05-07 10:58 | 38.77162 | 35.49433 | 3467 ft | 19 kts | 76° |
| 2026-05-07 10:58 | 38.77195 | 35.49608 | 3465 ft | 21 kts | 76° |
| 2026-05-07 10:58 | 38.77230 | 35.49792 | 3463 ft | 23 kts | 76° |
| 2026-05-07 10:59 | 38.77270 | 35.50001 | 3460 ft | 24 kts | 76° |
| 2026-05-07 10:59 | 38.77309 | 35.50202 | 3460 ft | 23 kts | 76° |
| 2026-05-07 10:59 | 38.77346 | 35.50400 | 3464 ft | 22 kts | 76° |
| 2026-05-07 10:59 | 38.77381 | 35.50588 | 3466 ft | 22 kts | 76° |
| 2026-05-07 11:00 | 38.77418 | 35.50779 | 3468 ft | 22 kts | 76° |
| 2026-05-07 11:00 | 38.77453 | 35.50965 | 3468 ft | 21 kts | 76° |
| 2026-05-07 11:00 | 38.77481 | 35.51127 | 3469 ft | 15 kts | 94° |
| 2026-05-07 11:00 | 38.77406 | 35.51186 | 3467 ft | 11 kts | 165° |
| 2026-05-07 11:01 | 38.77350 | 35.51150 | 3468 ft | 11 kts | 259° |
| 2026-05-07 11:01 | 38.77341 | 35.51101 | 3469 ft | 0 kts | 257° |
| 2026-05-07 11:01 | 38.77335 | 35.51067 | 3469 ft | 13 kts | 256° |
| 2026-05-07 11:02 | 38.77262 | 35.50685 | 3468 ft | 79 kts | 256° |
| 2026-05-07 11:02 | 38.77078 | 35.49724 | 3464 ft | 141 kts | 256° |
| 2026-05-07 11:02 | 38.76811 | 35.48294 | 3571 ft | 181 kts | 258° |
| 2026-05-07 11:02 | 38.76536 | 35.46760 | 4463 ft | 172 kts | 259° |
| 2026-05-07 11:03 | 38.76275 | 35.45218 | 5218 ft | 181 kts | 259° |
| 2026-05-07 11:03 | 38.76006 | 35.43643 | 6026 ft | 180 kts | 259° |
| 2026-05-07 11:03 | 38.75716 | 35.42067 | 6748 ft | 185 kts | 257° |
| 2026-05-07 11:03 | 38.75393 | 35.40455 | 7391 ft | 188 kts | 256° |
| 2026-05-07 11:04 | 38.75041 | 35.38858 | 8150 ft | 184 kts | 253° |
| 2026-05-07 11:04 | 38.74642 | 35.37285 | 8773 ft | 190 kts | 252° |
| 2026-05-07 11:04 | 38.74210 | 35.35667 | 9409 ft | 193 kts | 251° |
| 2026-05-07 11:04 | 38.73733 | 35.34029 | 10011 ft | 195 kts | 249° |
| 2026-05-07 11:05 | 38.73231 | 35.32416 | 10584 ft | 199 kts | 248° |
| 2026-05-07 11:05 | 38.72802 | 35.30628 | 10518 ft | 231 kts | 265° |
| 2026-05-07 11:05 | 38.72941 | 35.28465 | 10585 ft | 251 kts | 288° |
| 2026-05-07 11:05 | 38.73757 | 35.26558 | 11348 ft | 238 kts | 309° |
| 2026-05-07 11:06 | 38.74884 | 35.24900 | 11663 ft | 261 kts | 311° |
| 2026-05-07 11:06 | 38.75935 | 35.22865 | 11853 ft | 287 kts | 298° |
| 2026-05-07 11:06 | 38.76858 | 35.20484 | 12139 ft | 307 kts | 297° |
| 2026-05-07 11:06 | 38.77794 | 35.18042 | 12836 ft | 311 kts | 297° |
| 2026-05-07 11:07 | 38.78764 | 35.15451 | 13216 ft | 329 kts | 297° |
| 2026-05-07 11:07 | 38.79784 | 35.12758 | 13375 ft | 351 kts | 297° |
| 2026-05-07 11:07 | 38.80894 | 35.09876 | 13535 ft | 371 kts | 297° |
| 2026-05-07 11:07 | 38.82073 | 35.06860 | 13886 ft | 384 kts | 298° |
| 2026-05-07 11:08 | 38.83286 | 35.03789 | 14449 ft | 388 kts | 298° |
| 2026-05-07 11:08 | 38.84516 | 35.00694 | 15108 ft | 390 kts | 298° |
| 2026-05-07 11:08 | 38.85757 | 34.97584 | 15727 ft | 393 kts | 298° |
| 2026-05-07 11:08 | 38.87009 | 34.94455 | 16313 ft | 396 kts | 298° |
| 2026-05-07 11:09 | 38.88272 | 34.91299 | 16903 ft | 400 kts | 298° |
| 2026-05-07 11:09 | 38.89546 | 34.88114 | 17494 ft | 403 kts | 298° |
| 2026-05-07 11:09 | 38.90829 | 34.84902 | 18086 ft | 406 kts | 298° |
| 2026-05-07 11:09 | 38.92124 | 34.81659 | 18640 ft | 409 kts | 298° |
| 2026-05-07 11:10 | 38.93425 | 34.78394 | 19146 ft | 412 kts | 298° |
| 2026-05-07 11:10 | 38.94732 | 34.75112 | 19706 ft | 413 kts | 299° |
| 2026-05-07 11:10 | 38.96039 | 34.71827 | 20266 ft | 414 kts | 299° |
| 2026-05-07 11:10 | 38.97348 | 34.68530 | 20843 ft | 414 kts | 299° |
| 2026-05-07 11:11 | 38.98661 | 34.65224 | 21359 ft | 416 kts | 299° |
| 2026-05-07 11:11 | 38.99982 | 34.61893 | 21853 ft | 419 kts | 299° |
| 2026-05-07 11:11 | 39.01305 | 34.58552 | 22336 ft | 421 kts | 300° |
| 2026-05-07 11:11 | 39.02633 | 34.55195 | 22821 ft | 422 kts | 300° |
| 2026-05-07 11:12 | 39.03968 | 34.51817 | 23297 ft | 424 kts | 300° |
| 2026-05-07 11:12 | 39.05305 | 34.48431 | 23767 ft | 426 kts | 300° |
| 2026-05-07 11:12 | 39.06646 | 34.45028 | 24220 ft | 425 kts | 300° |
| 2026-05-07 11:12 | 39.07980 | 34.41639 | 24689 ft | 425 kts | 300° |
| 2026-05-07 11:13 | 39.09316 | 34.38243 | 25036 ft | 426 kts | 300° |
| 2026-05-07 11:13 | 39.10660 | 34.34824 | 25352 ft | 429 kts | 300° |
| 2026-05-07 11:13 | 39.12008 | 34.31391 | 25679 ft | 430 kts | 300° |
| 2026-05-07 11:13 | 39.13477 | 34.28037 | 26028 ft | 429 kts | 306° |
| 2026-05-07 11:14 | 39.15310 | 34.25011 | 26385 ft | 428 kts | 312° |
| 2026-05-07 11:14 | 39.17250 | 34.22086 | 26712 ft | 429 kts | 313° |
| 2026-05-07 11:14 | 39.19193 | 34.19151 | 26968 ft | 432 kts | 312° |
| 2026-05-07 11:14 | 39.21137 | 34.16187 | 27249 ft | 434 kts | 311° |
| 2026-05-07 11:15 | 39.23058 | 34.13236 | 27566 ft | 436 kts | 311° |
| 2026-05-07 11:15 | 39.25000 | 34.10234 | 27911 ft | 436 kts | 311° |
| 2026-05-07 11:15 | 39.26939 | 34.07229 | 28313 ft | 435 kts | 311° |
| 2026-05-07 11:15 | 39.28872 | 34.04227 | 28789 ft | 433 kts | 311° |
| 2026-05-07 11:16 | 39.30791 | 34.01247 | 29269 ft | 430 kts | 311° |
| 2026-05-07 11:16 | 39.32700 | 33.98281 | 29732 ft | 428 kts | 311° |
| 2026-05-07 11:16 | 39.34602 | 33.95334 | 30148 ft | 427 kts | 311° |
| 2026-05-07 11:16 | 39.36510 | 33.92401 | 30460 ft | 427 kts | 311° |
| 2026-05-07 11:17 | 39.38422 | 33.89468 | 30786 ft | 426 kts | 311° |
| 2026-05-07 11:17 | 39.40326 | 33.86543 | 31169 ft | 423 kts | 311° |
| 2026-05-07 11:17 | 39.42215 | 33.83635 | 31565 ft | 421 kts | 311° |
| 2026-05-07 11:17 | 39.44093 | 33.80740 | 31947 ft | 419 kts | 311° |
| 2026-05-07 11:18 | 39.45961 | 33.77854 | 32192 ft | 420 kts | 311° |
| 2026-05-07 11:18 | 39.47193 | 33.75909 | 32171 ft | 423 kts | 311° |
| 2026-05-07 11:18 | 39.51444 | 33.68977 | 32179 ft | 420 kts | 310° |
| 2026-05-07 11:19 | 39.55048 | 33.63109 | 32178 ft | 415 kts | 310° |
| 2026-05-07 11:19 | 39.58660 | 33.57282 | 32183 ft | 414 kts | 311° |
| 2026-05-07 11:20 | 39.61717 | 33.52491 | 32190 ft | 414 kts | 311° |
| 2026-05-07 11:20 | 39.65417 | 33.46742 | 32174 ft | 415 kts | 311° |
| 2026-05-07 11:21 | 39.69111 | 33.40977 | 32175 ft | 416 kts | 311° |
| 2026-05-07 11:21 | 39.72803 | 33.35188 | 32183 ft | 416 kts | 311° |
| 2026-05-07 11:22 | 39.76493 | 33.29386 | 32187 ft | 416 kts | 311° |
| 2026-05-07 11:22 | 39.80185 | 33.23571 | 32176 ft | 417 kts | 311° |
| 2026-05-07 11:23 | 39.83852 | 33.17783 | 32188 ft | 417 kts | 311° |
| 2026-05-07 11:23 | 39.87534 | 33.11963 | 32165 ft | 417 kts | 311° |
| 2026-05-07 11:24 | 39.91215 | 33.06132 | 32182 ft | 416 kts | 311° |
| 2026-05-07 11:24 | 39.94888 | 33.00304 | 32188 ft | 416 kts | 311° |
| 2026-05-07 11:25 | 39.98563 | 32.94459 | 32187 ft | 416 kts | 311° |
| 2026-05-07 11:25 | 40.02224 | 32.88627 | 32162 ft | 415 kts | 311° |
| 2026-05-07 11:26 | 40.05873 | 32.82805 | 32182 ft | 413 kts | 311° |
| 2026-05-07 11:26 | 40.09337 | 32.76816 | 32183 ft | 414 kts | 307° |
| 2026-05-07 11:27 | 40.12587 | 32.70614 | 32178 ft | 413 kts | 307° |
| 2026-05-07 11:27 | 40.15825 | 32.64408 | 32171 ft | 413 kts | 307° |
| 2026-05-07 11:28 | 40.19051 | 32.58274 | 32176 ft | 411 kts | 307° |
| 2026-05-07 11:28 | 40.22296 | 32.52121 | 32181 ft | 411 kts | 307° |
| 2026-05-07 11:29 | 40.25539 | 32.45965 | 32176 ft | 410 kts | 307° |
| 2026-05-07 11:29 | 40.28772 | 32.39814 | 32181 ft | 410 kts | 307° |
| 2026-05-07 11:30 | 40.31996 | 32.33668 | 32153 ft | 409 kts | 307° |
| 2026-05-07 11:30 | 40.35208 | 32.27538 | 32181 ft | 408 kts | 307° |
| 2026-05-07 11:31 | 40.38418 | 32.21391 | 32171 ft | 409 kts | 307° |
| 2026-05-07 11:31 | 40.41626 | 32.15239 | 32163 ft | 409 kts | 307° |
| 2026-05-07 11:32 | 40.46447 | 32.05983 | 32164 ft | 410 kts | 307° |
| 2026-05-07 11:33 | 40.49644 | 31.99831 | 32166 ft | 411 kts | 307° |
| 2026-05-07 11:33 | 40.52862 | 31.93625 | 32150 ft | 411 kts | 307° |
| 2026-05-07 11:34 | 40.56083 | 31.87402 | 32160 ft | 411 kts | 307° |
| 2026-05-07 11:34 | 40.58877 | 31.80807 | 32158 ft | 418 kts | 294° |
| 2026-05-07 11:35 | 40.60679 | 31.73489 | 32158 ft | 420 kts | 292° |
| 2026-05-07 11:35 | 40.62456 | 31.66164 | 32142 ft | 421 kts | 292° |
| 2026-05-07 11:36 | 40.64255 | 31.58829 | 32146 ft | 421 kts | 292° |
| 2026-05-07 11:36 | 40.66054 | 31.51510 | 32141 ft | 422 kts | 292° |
| 2026-05-07 11:37 | 40.67858 | 31.44151 | 32154 ft | 423 kts | 292° |
| 2026-05-07 11:37 | 40.69662 | 31.36769 | 32142 ft | 422 kts | 291° |
| 2026-05-07 11:38 | 40.71456 | 31.29401 | 32140 ft | 423 kts | 291° |
| 2026-05-07 11:38 | 40.73252 | 31.22014 | 32141 ft | 423 kts | 291° |
| 2026-05-07 11:39 | 40.75051 | 31.14622 | 32144 ft | 422 kts | 291° |
| 2026-05-07 11:39 | 40.76842 | 31.07243 | 32122 ft | 422 kts | 291° |
| 2026-05-07 11:39 | 40.77709 | 31.03656 | 32112 ft | 409 kts | 291° |
| 2026-05-07 11:40 | 40.78552 | 31.00151 | 32120 ft | 393 kts | 291° |
| 2026-05-07 11:40 | 40.79362 | 30.96782 | 32113 ft | 378 kts | 291° |
| 2026-05-07 11:40 | 40.80143 | 30.93537 | 32123 ft | 364 kts | 291° |
| 2026-05-07 11:40 | 40.80895 | 30.90408 | 32116 ft | 351 kts | 291° |
| 2026-05-07 11:41 | 40.81621 | 30.87388 | 32120 ft | 338 kts | 291° |
| 2026-05-07 11:41 | 40.82318 | 30.84487 | 32118 ft | 326 kts | 292° |
| 2026-05-07 11:41 | 40.82992 | 30.81679 | 32116 ft | 314 kts | 292° |
| 2026-05-07 11:42 | 40.84333 | 30.76107 | 32153 ft | 326 kts | 292° |
| 2026-05-07 11:42 | 40.85732 | 30.70266 | 32135 ft | 339 kts | 291° |
| 2026-05-07 11:43 | 40.86943 | 30.64353 | 32130 ft | 334 kts | 283° |
| 2026-05-07 11:43 | 40.87458 | 30.58222 | 32066 ft | 332 kts | 281° |
| 2026-05-07 11:43 | 40.87713 | 30.55202 | 31730 ft | 330 kts | 282° |
| 2026-05-07 11:44 | 40.87989 | 30.52194 | 31292 ft | 330 kts | 283° |
| 2026-05-07 11:44 | 40.88248 | 30.49162 | 30713 ft | 336 kts | 280° |
| 2026-05-07 11:44 | 40.88381 | 30.46048 | 29773 ft | 352 kts | 278° |
| 2026-05-07 11:44 | 40.88456 | 30.42777 | 29072 ft | 358 kts | 277° |
| 2026-05-07 11:45 | 40.88511 | 30.39485 | 28588 ft | 357 kts | 277° |
| 2026-05-07 11:45 | 40.88566 | 30.36215 | 28198 ft | 354 kts | 277° |
| 2026-05-07 11:45 | 40.88625 | 30.32976 | 27799 ft | 351 kts | 277° |
| 2026-05-07 11:45 | 40.88692 | 30.29761 | 27364 ft | 350 kts | 277° |
| 2026-05-07 11:46 | 40.88763 | 30.26552 | 26937 ft | 348 kts | 277° |
| 2026-05-07 11:46 | 40.88836 | 30.23360 | 26538 ft | 347 kts | 277° |
| 2026-05-07 11:46 | 40.88910 | 30.20189 | 26141 ft | 345 kts | 277° |
| 2026-05-07 11:46 | 40.88983 | 30.17032 | 25775 ft | 343 kts | 277° |
| 2026-05-07 11:47 | 40.89057 | 30.13891 | 25389 ft | 341 kts | 277° |
| 2026-05-07 11:47 | 40.89130 | 30.10756 | 25015 ft | 340 kts | 277° |
| 2026-05-07 11:47 | 40.89202 | 30.07640 | 24657 ft | 339 kts | 277° |
| 2026-05-07 11:47 | 40.89272 | 30.04528 | 24282 ft | 338 kts | 277° |
| 2026-05-07 11:48 | 40.89342 | 30.01436 | 23933 ft | 336 kts | 277° |
| 2026-05-07 11:48 | 40.89410 | 29.98353 | 23551 ft | 335 kts | 276° |
| 2026-05-07 11:48 | 40.89477 | 29.95282 | 23150 ft | 333 kts | 276° |
| 2026-05-07 11:48 | 40.89542 | 29.92269 | 22791 ft | 331 kts | 276° |
| 2026-05-07 11:49 | 40.89607 | 29.89236 | 22413 ft | 329 kts | 276° |
| 2026-05-07 11:49 | 40.89672 | 29.86174 | 22017 ft | 328 kts | 276° |
| 2026-05-07 11:49 | 40.89734 | 29.83208 | 21637 ft | 327 kts | 276° |
| 2026-05-07 11:49 | 40.89796 | 29.80208 | 21265 ft | 326 kts | 276° |
| 2026-05-07 11:50 | 40.89857 | 29.77230 | 20888 ft | 321 kts | 276° |
| 2026-05-07 11:50 | 40.89915 | 29.74287 | 20322 ft | 319 kts | 276° |
| 2026-05-07 11:50 | 40.89974 | 29.71354 | 19720 ft | 320 kts | 276° |
| 2026-05-07 11:50 | 40.90032 | 29.68419 | 19184 ft | 318 kts | 276° |
| 2026-05-07 11:51 | 40.90088 | 29.65505 | 18650 ft | 317 kts | 276° |
| 2026-05-07 11:51 | 40.90144 | 29.62596 | 18079 ft | 316 kts | 276° |
| 2026-05-07 11:51 | 40.90199 | 29.59702 | 17514 ft | 314 kts | 275° |
| 2026-05-07 11:51 | 40.90252 | 29.56835 | 16950 ft | 311 kts | 275° |
| 2026-05-07 11:52 | 40.90305 | 29.53967 | 16283 ft | 313 kts | 275° |
| 2026-05-07 11:52 | 40.90360 | 29.51068 | 15521 ft | 318 kts | 274° |
| 2026-05-07 11:52 | 40.90413 | 29.48124 | 14801 ft | 321 kts | 274° |
| 2026-05-07 11:52 | 40.90465 | 29.45160 | 14102 ft | 324 kts | 274° |
| 2026-05-07 11:53 | 40.90516 | 29.42165 | 13415 ft | 329 kts | 273° |
| 2026-05-07 11:53 | 40.90568 | 29.39123 | 12931 ft | 331 kts | 273° |
| 2026-05-07 11:53 | 40.90618 | 29.36125 | 12543 ft | 330 kts | 273° |
| 2026-05-07 11:53 | 40.90667 | 29.33097 | 12116 ft | 328 kts | 273° |
| 2026-05-07 11:54 | 40.90716 | 29.30097 | 11770 ft | 324 kts | 273° |
| 2026-05-07 11:54 | 40.90763 | 29.27133 | 11461 ft | 320 kts | 273° |
| 2026-05-07 11:54 | 40.90809 | 29.24204 | 11123 ft | 317 kts | 273° |
| 2026-05-07 11:54 | 40.90854 | 29.21304 | 10802 ft | 314 kts | 273° |
| 2026-05-07 11:55 | 40.90898 | 29.18430 | 10478 ft | 311 kts | 273° |
| 2026-05-07 11:55 | 40.90941 | 29.15580 | 10169 ft | 308 kts | 273° |
| 2026-05-07 11:55 | 40.90982 | 29.12764 | 9918 ft | 302 kts | 273° |
| 2026-05-07 11:55 | 40.91021 | 29.10067 | 9919 ft | 285 kts | 273° |
| 2026-05-07 11:56 | 40.91057 | 29.07520 | 9856 ft | 271 kts | 273° |
| 2026-05-07 11:56 | 40.91092 | 29.05057 | 9552 ft | 266 kts | 273° |
| 2026-05-07 11:56 | 40.91127 | 29.02613 | 9178 ft | 265 kts | 273° |
| 2026-05-07 11:56 | 40.91186 | 29.00196 | 8769 ft | 261 kts | 277° |
| 2026-05-07 11:57 | 40.91387 | 28.97816 | 8312 ft | 260 kts | 278° |
| 2026-05-07 11:57 | 40.91612 | 28.95465 | 7949 ft | 256 kts | 278° |
| 2026-05-07 11:57 | 40.91829 | 28.93119 | 7668 ft | 256 kts | 278° |
| 2026-05-07 11:57 | 40.92039 | 28.90780 | 7404 ft | 256 kts | 278° |
| 2026-05-07 11:58 | 40.92246 | 28.88443 | 7140 ft | 255 kts | 278° |
| 2026-05-07 11:58 | 40.92450 | 28.86118 | 6885 ft | 254 kts | 277° |
| 2026-05-07 11:58 | 40.92649 | 28.83827 | 6620 ft | 254 kts | 277° |
| 2026-05-07 11:58 | 40.92876 | 28.81491 | 6338 ft | 252 kts | 283° |
| 2026-05-07 11:59 | 40.93633 | 28.79493 | 6070 ft | 246 kts | 310° |
| 2026-05-07 11:59 | 40.94904 | 28.78017 | 5828 ft | 242 kts | 324° |
| 2026-05-07 11:59 | 40.96333 | 28.76864 | 5588 ft | 238 kts | 329° |
| 2026-05-07 11:59 | 40.97903 | 28.76237 | 5326 ft | 238 kts | 355° |
| 2026-05-07 12:00 | 40.99544 | 28.76238 | 5104 ft | 234 kts | 356° |
| 2026-05-07 12:00 | 41.01160 | 28.76186 | 4860 ft | 230 kts | 355° |
| 2026-05-07 12:00 | 41.02728 | 28.76140 | 4808 ft | 220 kts | 355° |
| 2026-05-07 12:00 | 41.04286 | 28.76102 | 4553 ft | 227 kts | 356° |
| 2026-05-07 12:01 | 41.05856 | 28.76068 | 4281 ft | 224 kts | 356° |
| 2026-05-07 12:01 | 41.07394 | 28.76040 | 3978 ft | 218 kts | 356° |
| 2026-05-07 12:01 | 41.08891 | 28.76011 | 3693 ft | 212 kts | 355° |
| 2026-05-07 12:01 | 41.10335 | 28.75985 | 3416 ft | 202 kts | 356° |
| 2026-05-07 12:02 | 41.11700 | 28.75958 | 3148 ft | 190 kts | 355° |
| 2026-05-07 12:02 | 41.12968 | 28.75934 | 2954 ft | 173 kts | 355° |
| 2026-05-07 12:02 | 41.14136 | 28.75910 | 2679 ft | 162 kts | 355° |
| 2026-05-07 12:02 | 41.15263 | 28.75885 | 2477 ft | 166 kts | 356° |
| 2026-05-07 12:03 | 41.16413 | 28.75864 | 2273 ft | 164 kts | 355° |
| 2026-05-07 12:03 | 41.17551 | 28.75837 | 2073 ft | 163 kts | 355° |
| 2026-05-07 12:03 | 41.18685 | 28.75816 | 1839 ft | 162 kts | 356° |
| 2026-05-07 12:03 | 41.19816 | 28.75796 | 1599 ft | 162 kts | 356° |
| 2026-05-07 12:04 | 41.20925 | 28.75773 | 1409 ft | 159 kts | 356° |
| 2026-05-07 12:04 | 41.22059 | 28.75750 | 1184 ft | 165 kts | 355° |
| 2026-05-07 12:04 | 41.23190 | 28.75723 | 947 ft | 159 kts | 360° |
| 2026-05-07 12:04 | 41.24284 | 28.75703 | 697 ft | 153 kts | 2° |
| 2026-05-07 12:05 | 41.25310 | 28.75684 | 520 ft | 146 kts | 0° |
| 2026-05-07 12:05 | 41.26301 | 28.75666 | 383 ft | 139 kts | 2° |
| 2026-05-07 12:05 | 41.27231 | 28.75636 | 331 ft | 124 kts | 1° |
| 2026-05-07 12:05 | 41.28252 | 28.75658 | 630 ft | 162 kts | 0° |
| 2026-05-07 12:06 | 41.29504 | 28.75615 | 1152 ft | 203 kts | 3° |
| 2026-05-07 12:06 | 41.31015 | 28.75805 | 1458 ft | 236 kts | 6° |
| 2026-05-07 12:06 | 41.32684 | 28.76044 | 1163 ft | 239 kts | 4° |
| 2026-05-07 12:06 | 41.34098 | 28.76060 | 1213 ft | 223 kts | 359° |
| 2026-05-07 12:07 | 41.35024 | 28.76035 | 1206 ft | 223 kts | 359° |
| 2026-05-07 12:07 | 41.36079 | 28.76125 | 1168 ft | 224 kts | 13° |
| 2026-05-07 12:07 | 41.37456 | 28.77096 | 1265 ft | 238 kts | 45° |
| 2026-05-07 12:07 | 41.38312 | 28.78986 | 1324 ft | 249 kts | 75° |
| 2026-05-07 12:08 | 41.38429 | 28.81272 | 1352 ft | 251 kts | 94° |
| 2026-05-07 12:08 | 41.38303 | 28.83590 | 1378 ft | 250 kts | 95° |
| 2026-05-07 12:08 | 41.38155 | 28.85887 | 1388 ft | 248 kts | 95° |
| 2026-05-07 12:08 | 41.38002 | 28.88174 | 1400 ft | 248 kts | 96° |
| 2026-05-07 12:09 | 41.37850 | 28.90440 | 1609 ft | 246 kts | 96° |
| 2026-05-07 12:09 | 41.37695 | 28.92763 | 2160 ft | 255 kts | 96° |
| 2026-05-07 12:09 | 41.37542 | 28.95108 | 3166 ft | 257 kts | 95° |
| 2026-05-07 12:09 | 41.37370 | 28.97504 | 3699 ft | 260 kts | 96° |
| 2026-05-07 12:10 | 41.37213 | 28.99096 | 3952 ft | 265 kts | 103° |
| 2026-05-07 12:10 | 41.36325 | 29.01200 | 3983 ft | 261 kts | 141° |
| 2026-05-07 12:10 | 41.34752 | 29.02153 | 3982 ft | 245 kts | 179° |
| 2026-05-07 12:10 | 41.33113 | 29.01683 | 4027 ft | 247 kts | 206° |
| 2026-05-07 12:11 | 41.31452 | 29.00946 | 3991 ft | 256 kts | 195° |
| 2026-05-07 12:11 | 41.29141 | 29.00263 | 3985 ft | 256 kts | 195° |
| 2026-05-07 12:11 | 41.27970 | 28.99909 | 3987 ft | 255 kts | 195° |
| 2026-05-07 12:11 | 41.26249 | 28.99387 | 3993 ft | 253 kts | 195° |
| 2026-05-07 12:12 | 41.24539 | 28.98868 | 3984 ft | 251 kts | 195° |
| 2026-05-07 12:12 | 41.22852 | 28.98359 | 4004 ft | 254 kts | 195° |
| 2026-05-07 12:12 | 41.21127 | 28.97826 | 3997 ft | 254 kts | 196° |
| 2026-05-07 12:12 | 41.19400 | 28.97299 | 4010 ft | 256 kts | 195° |
| 2026-05-07 12:13 | 41.17665 | 28.96781 | 3996 ft | 256 kts | 195° |
| 2026-05-07 12:13 | 41.15927 | 28.96264 | 3994 ft | 255 kts | 195° |
| 2026-05-07 12:13 | 41.14189 | 28.95747 | 3991 ft | 256 kts | 195° |
| 2026-05-07 12:13 | 41.12458 | 28.95241 | 3985 ft | 255 kts | 195° |
| 2026-05-07 12:14 | 41.10718 | 28.94727 | 4008 ft | 257 kts | 195° |
| 2026-05-07 12:14 | 41.08968 | 28.94198 | 3996 ft | 258 kts | 195° |
| 2026-05-07 12:14 | 41.07242 | 28.93675 | 3979 ft | 257 kts | 195° |
| 2026-05-07 12:14 | 41.05532 | 28.93165 | 3986 ft | 256 kts | 195° |
| 2026-05-07 12:15 | 41.03801 | 28.92647 | 3987 ft | 255 kts | 195° |
| 2026-05-07 12:15 | 41.02099 | 28.92139 | 3994 ft | 253 kts | 195° |
| 2026-05-07 12:15 | 41.00358 | 28.91620 | 3987 ft | 252 kts | 195° |
| 2026-05-07 12:15 | 40.98644 | 28.91109 | 4006 ft | 253 kts | 195° |
| 2026-05-07 12:16 | 40.96956 | 28.90607 | 3997 ft | 252 kts | 195° |
| 2026-05-07 12:16 | 40.95243 | 28.90097 | 4011 ft | 252 kts | 196° |
| 2026-05-07 12:16 | 40.93668 | 28.89157 | 3988 ft | 248 kts | 224° |
| 2026-05-07 12:16 | 40.92727 | 28.87317 | 4000 ft | 243 kts | 253° |
| 2026-05-07 12:17 | 40.92497 | 28.85124 | 4007 ft | 242 kts | 273° |
| 2026-05-07 12:17 | 40.92648 | 28.82900 | 4002 ft | 243 kts | 277° |
| 2026-05-07 12:17 | 40.92983 | 28.80706 | 3987 ft | 245 kts | 293° |
| 2026-05-07 12:17 | 40.93992 | 28.78899 | 4014 ft | 247 kts | 316° |
| 2026-05-07 12:18 | 40.95400 | 28.77580 | 4016 ft | 249 kts | 326° |
| 2026-05-07 12:18 | 40.96919 | 28.76476 | 3987 ft | 248 kts | 338° |
| 2026-05-07 12:18 | 40.98591 | 28.76199 | 4014 ft | 238 kts | 358° |
| 2026-05-07 12:18 | 41.00208 | 28.76206 | 3992 ft | 225 kts | 355° |
| 2026-05-07 12:19 | 41.01711 | 28.76167 | 3989 ft | 207 kts | 355° |
| 2026-05-07 12:19 | 41.03095 | 28.76133 | 3984 ft | 191 kts | 355° |
| 2026-05-07 12:19 | 41.04399 | 28.76104 | 4009 ft | 187 kts | 355° |
| 2026-05-07 12:19 | 41.05650 | 28.76078 | 3972 ft | 171 kts | 355° |
| 2026-05-07 12:20 | 41.06806 | 28.76056 | 3999 ft | 164 kts | 355° |
| 2026-05-07 12:20 | 41.07928 | 28.76032 | 3859 ft | 160 kts | 354° |
| 2026-05-07 12:20 | 41.09026 | 28.76007 | 3658 ft | 156 kts | 355° |
| 2026-05-07 12:20 | 41.10106 | 28.75988 | 3468 ft | 154 kts | 355° |
| 2026-05-07 12:21 | 41.11178 | 28.75966 | 3260 ft | 154 kts | 355° |
| 2026-05-07 12:21 | 41.12249 | 28.75944 | 3050 ft | 155 kts | 355° |
| 2026-05-07 12:21 | 41.13338 | 28.75924 | 2882 ft | 159 kts | 355° |
| 2026-05-07 12:21 | 41.14437 | 28.75900 | 2648 ft | 157 kts | 355° |
| 2026-05-07 12:22 | 41.15551 | 28.75880 | 2426 ft | 162 kts | 356° |
| 2026-05-07 12:22 | 41.16676 | 28.75859 | 2225 ft | 161 kts | 356° |
| 2026-05-07 12:22 | 41.17796 | 28.75833 | 2023 ft | 161 kts | 355° |
| 2026-05-07 12:22 | 41.18908 | 28.75813 | 1784 ft | 161 kts | 356° |
| 2026-05-07 12:23 | 41.20014 | 28.75792 | 1564 ft | 156 kts | 356° |
| 2026-05-07 12:23 | 41.21108 | 28.75769 | 1386 ft | 161 kts | 356° |
| 2026-05-07 12:23 | 41.22238 | 28.75748 | 1135 ft | 162 kts | 357° |
| 2026-05-07 12:23 | 41.23346 | 28.75720 | 951 ft | 157 kts | 359° |
| 2026-05-07 12:24 | 41.24416 | 28.75697 | 719 ft | 152 kts | 2° |
| 2026-05-07 12:24 | 41.25446 | 28.75686 | 526 ft | 144 kts | 3° |
| 2026-05-07 12:24 | 41.26418 | 28.75660 | 358 ft | 140 kts | 2° |
| 2026-05-07 12:24 | 41.27314 | 28.75648 | 331 ft | 111 kts | 359° |
| 2026-05-07 12:25 | 41.27877 | 28.75635 | 330 ft | 43 kts | 357° |
| 2026-05-07 12:25 | 41.28045 | 28.75567 | 331 ft | 20 kts | 335° |
| 2026-05-07 12:25 | 41.28150 | 28.75477 | 333 ft | 19 kts | 310° |
| 2026-05-07 12:25 | 41.28111 | 28.75352 | 332 ft | 19 kts | 188° |
| 2026-05-07 12:26 | 41.28013 | 28.75350 | 333 ft | 18 kts | 179° |
| 2026-05-07 12:26 | 41.27926 | 28.75353 | 333 ft | 18 kts | 179° |
| 2026-05-07 12:26 | 41.27814 | 28.75356 | 331 ft | 17 kts | 178° |
| 2026-05-07 12:26 | 41.27711 | 28.75357 | 329 ft | 17 kts | 179° |
| 2026-05-07 12:27 | 41.27599 | 28.75360 | 332 ft | 16 kts | 179° |
| 2026-05-07 12:27 | 41.27502 | 28.75362 | 330 ft | 16 kts | 179° |
| 2026-05-07 12:27 | 41.27399 | 28.75364 | 332 ft | 15 kts | 179° |
| 2026-05-07 12:27 | 41.27298 | 28.75367 | 330 ft | 14 kts | 179° |
| 2026-05-07 12:28 | 41.27200 | 28.75369 | 332 ft | 14 kts | 178° |
| 2026-05-07 12:28 | 41.27117 | 28.75373 | 330 ft | 15 kts | 178° |
| 2026-05-07 12:28 | 41.27012 | 28.75374 | 330 ft | 19 kts | 179° |
| 2026-05-07 12:28 | 41.26871 | 28.75377 | 333 ft | 23 kts | 179° |
| 2026-05-07 12:29 | 41.26722 | 28.75380 | 331 ft | 26 kts | 179° |
| 2026-05-07 12:29 | 41.26561 | 28.75384 | 329 ft | 25 kts | 178° |
| 2026-05-07 12:29 | 41.26395 | 28.75388 | 331 ft | 23 kts | 180° |
| 2026-05-07 12:29 | 41.26238 | 28.75392 | 333 ft | 22 kts | 179° |
| 2026-05-07 12:30 | 41.26084 | 28.75396 | 330 ft | 22 kts | 179° |
| 2026-05-07 12:30 | 41.25937 | 28.75397 | 329 ft | 21 kts | 179° |
| 2026-05-07 12:30 | 41.25794 | 28.75402 | 332 ft | 20 kts | 179° |
| 2026-05-07 12:30 | 41.25666 | 28.75391 | 332 ft | 14 kts | 217° |
| 2026-05-07 12:31 | 41.25650 | 28.75299 | 333 ft | 12 kts | 269° |
| 2026-05-07 12:31 | 41.25648 | 28.75165 | 329 ft | 18 kts | 266° |
| 2026-05-07 12:31 | 41.25646 | 28.74995 | 333 ft | 19 kts | 270° |
| 2026-05-07 12:31 | 41.25644 | 28.74845 | 331 ft | 13 kts | 276° |
| 2026-05-07 12:32 | 41.25682 | 28.74790 | 331 ft | 4 kts | 1° |
| 2026-05-07 12:32 | 41.25705 | 28.74790 | 332 ft | 0 kts | 359° |